Time;durP1;ratioP1;P1;durP2;ratioP2;P2;SDS_P1;SDS_P2;PMS_P1;PMS_P2;Temp;Humidity;BMP_temperature;BMP_pressure;BME280_temperature;BME280_humidity;BME280_pressure;Samples;Min_cycle;Max_cycle;Signal;HPM_P1;HPM_P2
2022/09/19 00:02:56;;;;;;;0.85;0.85;;;11.90;99.90;;;;;;6140920;29;20235;-67
2022/09/19 00:06:02;;;;;;;1.10;1.00;;;11.90;99.90;;;;;;6141465;29;20316;-67
2022/09/19 00:09:11;;;;;;;1.27;0.90;;;12.00;99.90;;;;;;6139660;29;20564;-67
2022/09/19 00:12:16;;;;;;;0.80;0.80;;;11.90;99.90;;;;;;6163074;28;20246;-67
2022/09/19 00:15:22;;;;;;;1.15;1.15;;;11.90;99.90;;;;;;6164592;28;20211;-67
2022/09/19 00:18:27;;;;;;;2.50;0.90;;;11.90;99.90;;;;;;6164385;28;20237;-67
2022/09/19 00:21:34;;;;;;;0.75;0.75;;;11.90;99.90;;;;;;6164919;28;20290;-68
2022/09/19 00:24:49;;;;;;;0.80;0.80;;;11.90;99.90;;;;;;6164290;28;20298;-68
2022/09/19 00:27:54;;;;;;;1.02;0.77;;;11.90;99.90;;;;;;6164179;28;20486;-67
2022/09/19 00:31:00;;;;;;;0.90;0.90;;;11.90;99.90;;;;;;6164555;29;20310;-67
2022/09/19 00:34:06;;;;;;;1.00;1.00;;;11.90;99.90;;;;;;6164070;28;20422;-67
2022/09/19 00:37:11;;;;;;;1.00;1.00;;;11.90;99.90;;;;;;6162742;28;20521;-66
2022/09/19 00:40:16;;;;;;;2.38;1.00;;;11.90;99.90;;;;;;6163120;29;20192;-67
2022/09/19 00:43:22;;;;;;;0.90;0.90;;;11.90;99.90;;;;;;6162725;29;20293;-66
2022/09/19 00:46:30;;;;;;;1.00;1.00;;;11.90;99.90;;;;;;6163408;29;20218;-66
2022/09/19 00:49:37;;;;;;;0.90;0.90;;;12.00;99.90;;;;;;6164094;28;20319;-67
2022/09/19 00:52:47;;;;;;;0.70;0.70;;;12.00;99.90;;;;;;6163760;28;20530;-67
2022/09/19 00:55:55;;;;;;;2.28;0.95;;;12.10;99.90;;;;;;6164315;29;20267;-67
2022/09/19 00:59:00;;;;;;;0.93;0.93;;;12.10;99.90;;;;;;6162773;29;20231;-67
2022/09/19 01:02:08;;;;;;;0.82;0.82;;;12.00;99.90;;;;;;6164099;28;20255;-67
2022/09/19 01:05:16;;;;;;;0.73;0.73;;;12.00;99.90;;;;;;6164308;28;20191;-66
2022/09/19 01:08:46;;;;;;;1.77;1.70;;;12.00;99.90;;;;;;6163551;28;20253;-67
2022/09/19 01:12:13;;;;;;;0.80;0.80;;;12.10;99.90;;;;;;6144456;29;20506;-67
2022/09/19 01:15:30;;;;;;;1.00;1.00;;;12.00;99.90;;;;;;6139693;29;20252;-67
2022/09/19 01:18:43;;;;;;;1.13;0.90;;;11.90;99.90;;;;;;6139639;28;20232;-67
2022/09/19 01:21:55;;;;;;;0.80;0.80;;;12.00;99.90;;;;;;6139429;29;20304;-67
2022/09/19 01:25:05;;;;;;;0.77;0.77;;;12.00;99.90;;;;;;6141911;29;20239;-67
2022/09/19 01:28:20;;;;;;;1.02;0.90;;;12.00;99.90;;;;;;6143125;29;20231;-67
2022/09/19 01:31:33;;;;;;;1.00;1.00;;;12.00;99.90;;;;;;6143057;29;20236;-66
2022/09/19 01:34:42;;;;;;;0.70;0.70;;;12.00;99.90;;;;;;6144166;29;20251;-66
2022/09/19 01:37:52;;;;;;;0.85;0.85;;;12.10;99.90;;;;;;6143149;29;20232;-67
2022/09/19 01:40:57;;;;;;;0.70;0.70;;;12.10;99.90;;;;;;6143601;29;20263;-68
2022/09/19 01:44:05;;;;;;;2.20;0.80;;;12.10;99.90;;;;;;6143117;29;20299;-67
2022/09/19 01:47:21;;;;;;;0.98;0.98;;;12.00;99.90;;;;;;6142552;29;20189;-67
2022/09/19 01:50:34;;;;;;;0.90;0.90;;;11.90;99.90;;;;;;6143039;29;20506;-67
2022/09/19 01:53:59;;;;;;;0.98;0.90;;;11.80;99.90;;;;;;6142885;29;20299;-67
2022/09/19 01:57:32;;;;;;;1.48;0.77;;;11.80;99.90;;;;;;6143152;29;20270;-67
2022/09/19 02:00:43;;;;;;;0.93;0.93;;;11.70;99.90;;;;;;6143243;29;20196;-67
2022/09/19 02:03:51;;;;;;;2.83;0.90;;;11.70;99.90;;;;;;6142643;29;20252;-67
2022/09/19 02:07:01;;;;;;;0.70;0.70;;;11.60;99.90;;;;;;6142557;29;20255;-68
2022/09/19 02:10:10;;;;;;;0.80;0.80;;;11.60;99.90;;;;;;6148240;29;20234;-67
2022/09/19 02:13:18;;;;;;;1.30;0.85;;;11.70;99.90;;;;;;6166221;29;20231;-68
2022/09/19 02:16:31;;;;;;;0.80;0.80;;;11.80;99.90;;;;;;6167730;28;20219;-67
2022/09/19 02:19:39;;;;;;;1.13;0.73;;;11.70;99.90;;;;;;6166141;29;20231;-68
2022/09/19 02:22:50;;;;;;;1.85;0.85;;;11.80;99.90;;;;;;6166116;28;20302;-67
2022/09/19 02:25:56;;;;;;;0.77;0.70;;;11.80;99.90;;;;;;6166057;29;20400;-67
2022/09/19 02:29:01;;;;;;;1.92;0.90;;;11.80;99.90;;;;;;6166815;28;20485;-67
2022/09/19 02:32:11;;;;;;;2.40;1.10;;;11.90;99.90;;;;;;6165633;28;20240;-67
2022/09/19 02:35:18;;;;;;;0.85;0.77;;;11.90;99.90;;;;;;6165721;28;20215;-68
2022/09/19 02:38:33;;;;;;;0.80;0.80;;;12.00;99.90;;;;;;6165292;29;20408;-67
2022/09/19 02:41:48;;;;;;;0.60;0.60;;;11.90;99.90;;;;;;6167283;28;20215;-67
2022/09/19 02:45:07;;;;;;;0.88;0.88;;;12.00;99.90;;;;;;6165101;29;20227;-67
2022/09/19 02:48:21;;;;;;;0.90;0.90;;;12.00;99.90;;;;;;6165303;29;20453;-67
2022/09/19 02:51:30;;;;;;;0.80;0.80;;;12.00;99.90;;;;;;6166001;29;20195;-67
2022/09/19 02:54:42;;;;;;;0.73;0.73;;;11.80;99.90;;;;;;6165040;29;20231;-67
2022/09/19 02:57:48;;;;;;;0.80;0.80;;;11.80;99.90;;;;;;6165360;28;20238;-67
2022/09/19 03:00:57;;;;;;;0.82;0.82;;;11.90;99.90;;;;;;6159001;29;20271;-67
2022/09/19 03:04:14;;;;;;;0.70;0.70;;;12.00;99.90;;;;;;6135308;29;20232;-67
2022/09/19 03:07:29;;;;;;;1.60;0.68;;;12.00;99.90;;;;;;6153355;28;20287;-67
2022/09/19 03:10:48;;;;;;;0.70;0.70;;;12.00;99.90;;;;;;6162766;29;20218;-67
2022/09/19 03:14:12;;;;;;;0.70;0.70;;;12.00;99.90;;;;;;6141106;29;20236;-67
2022/09/19 03:17:18;;;;;;;0.55;0.55;;;11.90;99.90;;;;;;6141414;29;20220;-67
2022/09/19 03:20:24;;;;;;;0.70;0.70;;;11.90;99.90;;;;;;6151509;29;20290;-67
2022/09/19 03:23:32;;;;;;;0.70;0.70;;;11.90;99.90;;;;;;6164387;28;20278;-67
2022/09/19 03:26:38;;;;;;;0.95;0.90;;;11.80;99.90;;;;;;6165188;29;20219;-67
2022/09/19 03:29:44;;;;;;;0.80;0.80;;;11.80;99.90;;;;;;6164189;28;20427;-67
2022/09/19 03:32:48;;;;;;;0.65;0.65;;;11.80;99.90;;;;;;6164022;28;20374;-67
2022/09/19 03:35:56;;;;;;;0.70;0.70;;;11.90;99.90;;;;;;6164851;29;20286;-67
2022/09/19 03:39:01;;;;;;;0.70;0.70;;;11.90;99.90;;;;;;6133133;29;20233;-67
2022/09/19 03:42:12;;;;;;;0.68;0.63;;;11.90;99.90;;;;;;6117381;29;20193;-67
2022/09/19 03:45:17;;;;;;;0.70;0.70;;;11.90;99.90;;;;;;6116680;29;20308;-67
2022/09/19 03:48:22;;;;;;;0.80;0.80;;;11.90;99.90;;;;;;6115883;29;20232;-67
2022/09/19 03:51:33;;;;;;;0.90;0.90;;;11.80;99.90;;;;;;6117101;29;20201;-67
2022/09/19 03:54:40;;;;;;;1.35;0.70;;;11.90;99.90;;;;;;6116673;29;20303;-67
2022/09/19 03:57:44;;;;;;;0.80;0.80;;;11.90;99.90;;;;;;6116992;29;20213;-67
2022/09/19 04:00:49;;;;;;;2.25;0.57;;;11.90;99.90;;;;;;6116500;29;20269;-67
2022/09/19 04:03:55;;;;;;;1.40;0.70;;;11.90;99.90;;;;;;6116094;29;20573;-67
2022/09/19 04:07:01;;;;;;;0.60;0.60;;;11.90;99.90;;;;;;6116397;29;20197;-67
2022/09/19 04:10:06;;;;;;;0.70;0.70;;;11.90;99.90;;;;;;6116248;29;20248;-67
2022/09/19 04:13:13;;;;;;;0.70;0.70;;;11.90;99.90;;;;;;6131392;29;20259;-67
2022/09/19 04:16:20;;;;;;;1.48;0.80;;;11.90;99.90;;;;;;6116074;29;20415;-67
2022/09/19 04:19:26;;;;;;;0.85;0.70;;;12.00;99.90;;;;;;6115810;29;20236;-67
2022/09/19 04:23:05;;;;;;;0.80;0.80;;;12.00;99.90;;;;;;6115605;29;20362;-66
2022/09/19 04:26:33;;;;;;;0.70;0.70;;;12.00;99.90;;;;;;6116412;29;20264;-67
2022/09/19 04:29:40;;;;;;;0.63;0.63;;;12.00;99.90;;;;;;6115244;29;20521;-67
2022/09/19 04:32:45;;;;;;;1.00;0.70;;;12.00;99.90;;;;;;6115839;29;20260;-67
2022/09/19 04:35:49;;;;;;;1.23;0.73;;;12.00;99.90;;;;;;6116915;29;20495;-67
2022/09/19 04:38:57;;;;;;;0.70;0.70;;;12.00;99.90;;;;;;6115475;29;20233;-67
2022/09/19 04:42:08;;;;;;;0.80;0.65;;;12.00;99.90;;;;;;6115674;29;20189;-67
2022/09/19 04:45:13;;;;;;;0.80;0.80;;;12.10;99.90;;;;;;6115628;29;20251;-67
2022/09/19 04:48:32;;;;;;;0.70;0.70;;;12.10;99.90;;;;;;6115698;29;20295;-67
2022/09/19 04:51:36;;;;;;;0.60;0.60;;;12.00;99.90;;;;;;6115999;29;20196;-67
2022/09/19 04:54:43;;;;;;;2.63;0.70;;;12.00;99.90;;;;;;6115235;29;20475;-66
2022/09/19 04:57:48;;;;;;;0.73;0.70;;;12.00;99.90;;;;;;6115049;29;20240;-67
2022/09/19 05:00:54;;;;;;;0.75;0.73;;;12.10;99.90;;;;;;6120545;29;20192;-67
2022/09/19 05:04:03;;;;;;;0.80;0.80;;;12.00;99.90;;;;;;6119958;29;20243;-67
2022/09/19 05:07:10;;;;;;;0.75;0.75;;;12.10;99.90;;;;;;6136133;29;20284;-68
2022/09/19 05:10:16;;;;;;;0.77;0.77;;;12.10;99.90;;;;;;6120453;29;20272;-68
2022/09/19 05:13:20;;;;;;;0.70;0.70;;;12.10;99.90;;;;;;6167694;28;20231;-67
2022/09/19 05:16:24;;;;;;;0.70;0.70;;;12.10;99.90;;;;;;6169009;29;20215;-67
2022/09/19 05:19:36;;;;;;;0.70;0.70;;;12.00;99.90;;;;;;6167345;29;20537;-67
2022/09/19 05:22:41;;;;;;;0.80;0.80;;;12.00;99.90;;;;;;6167412;29;20187;-67
2022/09/19 05:25:47;;;;;;;0.70;0.70;;;12.00;99.90;;;;;;6167555;29;20395;-67
2022/09/19 05:28:51;;;;;;;0.60;0.60;;;12.10;99.90;;;;;;6168029;28;20282;-67
2022/09/19 05:32:03;;;;;;;0.70;0.70;;;12.10;99.90;;;;;;6167301;29;20617;-68
2022/09/19 05:35:24;;;;;;;1.50;0.80;;;12.10;99.90;;;;;;6167195;29;20243;-68
2022/09/19 05:38:48;;;;;;;0.63;0.63;;;12.00;99.90;;;;;;6168092;28;20306;-68
2022/09/19 05:42:26;;;;;;;1.85;0.90;;;12.00;99.90;;;;;;6136231;28;20204;-68
2022/09/19 05:45:31;;;;;;;0.70;0.70;;;12.00;99.90;;;;;;6166940;28;20237;-67
2022/09/19 05:48:37;;;;;;;0.80;0.80;;;12.10;99.90;;;;;;6166807;28;20269;-67
2022/09/19 05:51:42;;;;;;;0.80;0.80;;;12.10;99.90;;;;;;6167087;29;20223;-67
2022/09/19 05:54:50;;;;;;;0.80;0.80;;;12.10;99.90;;;;;;6166520;29;20427;-68
2022/09/19 05:58:17;;;;;;;0.70;0.70;;;12.10;99.90;;;;;;6167233;28;20263;-68
2022/09/19 06:01:21;;;;;;;0.75;0.75;;;12.20;99.90;;;;;;6166852;29;20258;-68
2022/09/19 06:04:26;;;;;;;0.70;0.70;;;12.10;99.90;;;;;;6167369;28;20250;-68
2022/09/19 06:07:31;;;;;;;0.80;0.80;;;12.10;99.90;;;;;;6166422;29;20200;-67
2022/09/19 06:10:38;;;;;;;0.75;0.75;;;12.10;99.90;;;;;;6162413;28;20227;-68
2022/09/19 06:17:08;;;;;;;0.73;0.73;;;12.10;99.90;;;;;;6142467;29;20216;-66
2022/09/19 06:20:35;;;;;;;2.15;0.70;;;12.20;99.90;;;;;;6114206;29;20299;-65
2022/09/19 06:24:07;;;;;;;0.70;0.70;;;12.10;99.90;;;;;;6118512;29;20264;-67
2022/09/19 06:27:11;;;;;;;5.00;0.80;;;12.20;99.90;;;;;;6118909;29;20200;-66
2022/09/19 06:30:21;;;;;;;0.52;0.52;;;12.10;99.90;;;;;;6138018;29;20306;-65
2022/09/19 06:33:50;;;;;;;0.55;0.50;;;12.20;99.90;;;;;;6141954;29;20232;-68
2022/09/19 06:36:59;;;;;;;0.80;0.80;;;12.20;99.90;;;;;;6142079;29;20216;-67
2022/09/19 06:40:04;;;;;;;0.77;0.77;;;12.20;99.90;;;;;;6141834;29;20227;-66
2022/09/19 06:43:35;;;;;;;0.70;0.70;;;12.20;99.90;;;;;;6141743;28;20303;-67
2022/09/19 06:47:05;;;;;;;0.70;0.70;;;12.30;99.90;;;;;;6116012;29;20208;-67
2022/09/19 06:50:49;;;;;;;0.60;0.60;;;12.30;99.90;;;;;;6046835;29;20298;-67
2022/09/19 06:53:54;;;;;;;0.80;0.80;;;12.30;99.90;;;;;;6046652;29;20273;-67
2022/09/19 06:57:01;;;;;;;4.75;0.85;;;12.30;99.90;;;;;;6118172;29;20217;-68
2022/09/19 07:00:08;;;;;;;2.35;0.90;;;12.30;99.90;;;;;;6136240;29;20239;-68
2022/09/19 07:03:18;;;;;;;0.60;0.60;;;12.40;99.90;;;;;;6141351;28;20239;-68
2022/09/19 07:06:35;;;;;;;0.73;0.73;;;12.50;99.90;;;;;;6141405;29;20425;-67
2022/09/19 07:09:44;;;;;;;0.60;0.60;;;12.50;99.90;;;;;;6141069;29;20258;-68
2022/09/19 07:12:53;;;;;;;1.67;0.77;;;12.50;99.90;;;;;;6161725;28;20263;-68
2022/09/19 07:16:03;;;;;;;0.70;0.70;;;12.50;99.90;;;;;;6165389;29;20188;-67
2022/09/19 07:19:10;;;;;;;0.90;0.80;;;12.60;99.90;;;;;;6164251;29;20412;-67
2022/09/19 07:22:20;;;;;;;0.70;0.70;;;12.60;99.90;;;;;;6164314;28;20227;-67
2022/09/19 07:25:56;;;;;;;0.80;0.80;;;12.80;99.90;;;;;;6164639;29;20274;-68
2022/09/19 07:29:00;;;;;;;0.68;0.68;;;12.90;99.90;;;;;;6164121;29;20589;-67
2022/09/19 07:32:05;;;;;;;1.48;0.77;;;12.90;99.90;;;;;;6164250;29;20238;-68
2022/09/19 07:35:13;;;;;;;5.78;1.00;;;13.00;99.90;;;;;;6165448;28;20230;-67
2022/09/19 07:38:22;;;;;;;0.80;0.80;;;13.00;99.90;;;;;;6164300;28;20242;-67
2022/09/19 07:41:43;;;;;;;0.80;0.80;;;13.00;99.90;;;;;;6164561;29;20188;-69
2022/09/19 07:45:08;;;;;;;2.75;0.90;;;13.00;99.90;;;;;;6165277;28;20231;-68
2022/09/19 07:48:36;;;;;;;0.73;0.73;;;13.00;99.90;;;;;;6155216;28;20297;-68
2022/09/19 07:51:56;;;;;;;2.05;1.02;;;13.00;99.90;;;;;;6164048;29;20465;-67
2022/09/19 07:55:01;;;;;;;4.20;0.77;;;13.00;99.90;;;;;;6163724;29;20258;-67
2022/09/19 07:58:06;;;;;;;3.83;1.05;;;13.00;99.90;;;;;;6163587;28;20237;-67
2022/09/19 08:01:17;;;;;;;0.90;0.88;;;13.00;99.90;;;;;;6163676;29;20191;-68
2022/09/19 08:04:40;;;;;;;1.23;0.80;;;13.10;99.90;;;;;;6164738;28;20337;-68
2022/09/19 08:07:46;;;;;;;0.95;0.90;;;13.10;99.90;;;;;;6164203;29;20199;-68
2022/09/19 08:10:53;;;;;;;1.15;1.10;;;13.10;99.90;;;;;;6158383;29;20204;-68
2022/09/19 08:13:58;;;;;;;1.10;1.10;;;13.10;99.90;;;;;;6140740;29;20302;-68
2022/09/19 08:17:03;;;;;;;1.20;0.85;;;13.20;99.90;;;;;;6140132;29;20212;-67
2022/09/19 08:20:08;;;;;;;0.80;0.80;;;13.20;99.90;;;;;;6155441;29;20243;-68
2022/09/19 08:23:20;;;;;;;2.05;0.90;;;13.20;99.90;;;;;;6139544;29;20227;-67
2022/09/19 08:26:27;;;;;;;2.50;0.75;;;13.20;99.90;;;;;;6139510;29;20188;-68
2022/09/19 08:29:33;;;;;;;2.35;0.70;;;13.10;99.90;;;;;;6139272;29;20262;-68
2022/09/19 08:32:46;;;;;;;1.00;1.00;;;13.10;99.90;;;;;;6139593;29;20188;-67
2022/09/19 08:35:50;;;;;;;1.58;0.80;;;13.10;99.90;;;;;;6131780;29;20275;-68
2022/09/19 08:39:10;;;;;;;0.57;0.57;;;13.10;99.90;;;;;;6115428;29;20404;-67
2022/09/19 08:42:22;;;;;;;0.70;0.70;;;13.10;99.90;;;;;;6116137;29;20196;-68
2022/09/19 08:45:36;;;;;;;0.80;0.80;;;13.10;99.90;;;;;;6137960;29;20255;-68
2022/09/19 08:48:53;;;;;;;1.10;0.82;;;13.20;99.90;;;;;;6139269;28;20254;-68
2022/09/19 08:52:01;;;;;;;0.73;0.68;;;13.20;99.90;;;;;;6139342;29;20192;-67
2022/09/19 08:55:16;;;;;;;1.15;0.80;;;13.20;99.90;;;;;;6138987;29;20307;-67
2022/09/19 08:58:23;;;;;;;0.80;0.80;;;13.10;99.90;;;;;;6139970;29;20236;-67
2022/09/19 09:02:10;;;;;;;0.80;0.80;;;13.10;99.90;;;;;;6129695;29;20216;-67
2022/09/19 09:05:48;;;;;;;1.20;0.80;;;13.20;99.90;;;;;;6138881;29;20243;-68
2022/09/19 09:09:00;;;;;;;0.80;0.80;;;13.20;99.90;;;;;;6138870;29;20236;-67
2022/09/19 09:12:23;;;;;;;0.82;0.82;;;13.10;99.90;;;;;;6154833;29;20436;-68
2022/09/19 09:15:47;;;;;;;0.80;0.80;;;13.00;99.90;;;;;;6163777;28;20250;-67
2022/09/19 09:19:25;;;;;;;1.00;1.00;;;13.10;99.90;;;;;;6162524;29;20234;-67
2022/09/19 09:22:33;;;;;;;0.70;0.70;;;13.10;99.90;;;;;;6163024;29;20237;-67
2022/09/19 09:26:06;;;;;;;0.77;0.73;;;13.10;99.90;;;;;;6162746;29;20207;-67
2022/09/19 09:29:25;;;;;;;0.80;0.80;;;13.10;99.90;;;;;;6162279;28;20301;-68
2022/09/19 09:32:49;;;;;;;1.00;0.80;;;13.10;99.90;;;;;;6162909;29;20205;-67
2022/09/19 09:36:02;;;;;;;0.85;0.85;;;13.10;99.90;;;;;;6162620;29;20207;-67
2022/09/19 09:39:13;;;;;;;0.70;0.70;;;13.10;99.90;;;;;;6161912;29;20239;-68
2022/09/19 09:42:20;;;;;;;0.88;0.88;;;13.20;99.90;;;;;;6162361;29;20408;-67
2022/09/19 09:45:35;;;;;;;0.80;0.80;;;13.20;99.90;;;;;;6164190;28;20434;-67
2022/09/19 09:48:43;;;;;;;0.80;0.80;;;13.30;99.90;;;;;;6166584;28;20464;-67
2022/09/19 09:52:06;;;;;;;0.80;0.80;;;13.30;99.90;;;;;;6167254;29;20188;-68
2022/09/19 10:06:16;;;;;;;0.93;0.93;;;13.10;99.90;;;;;;6166214;29;20222;-66
2022/09/19 10:09:24;;;;;;;0.80;0.80;;;13.10;99.90;;;;;;6166242;29;20235;-67
2022/09/19 10:12:37;;;;;;;0.75;0.75;;;13.00;99.90;;;;;;6148122;29;20192;-66
2022/09/19 10:15:56;;;;;;;1.75;0.80;;;13.10;99.90;;;;;;6118795;29;20284;-66
2022/09/19 10:19:11;;;;;;;0.80;0.80;;;13.00;99.90;;;;;;6128577;29;20300;-66
2022/09/19 10:22:17;;;;;;;0.73;0.73;;;13.00;99.90;;;;;;6142551;29;20259;-68
2022/09/19 10:25:30;;;;;;;0.80;0.80;;;13.00;99.90;;;;;;6141962;29;20231;-67
2022/09/19 10:28:40;;;;;;;0.95;0.95;;;13.00;99.90;;;;;;6141954;28;20330;-67
2022/09/19 10:32:19;;;;;;;0.93;0.93;;;13.20;99.90;;;;;;6095879;29;20552;-68
2022/09/19 10:35:58;;;;;;;1.00;1.00;;;13.40;99.90;;;;;;6086261;29;20228;-67
2022/09/19 10:39:11;;;;;;;1.00;1.00;;;13.50;99.90;;;;;;6094393;29;20242;-67
2022/09/19 10:42:36;;;;;;;1.17;0.90;;;13.50;99.90;;;;;;6095324;29;20193;-67
2022/09/19 10:45:47;;;;;;;1.27;1.05;;;13.50;99.90;;;;;;6093467;29;20237;-67
2022/09/19 10:48:57;;;;;;;0.77;0.77;;;13.60;99.90;;;;;;6094383;29;20252;-67
2022/09/19 10:52:06;;;;;;;0.65;0.65;;;13.50;99.90;;;;;;6094871;29;20218;-67
2022/09/19 10:55:20;;;;;;;1.38;0.80;;;13.40;99.90;;;;;;6094383;29;20277;-67
2022/09/19 10:58:27;;;;;;;0.98;0.90;;;13.30;99.90;;;;;;6093377;29;20229;-67
2022/09/19 11:02:14;;;;;;;1.38;0.80;;;13.30;99.90;;;;;;6094738;29;20257;-67
2022/09/19 11:05:27;;;;;;;1.48;0.90;;;13.30;99.90;;;;;;6094207;29;20236;-67
2022/09/19 11:08:44;;;;;;;0.80;0.80;;;13.30;99.90;;;;;;6095066;29;20316;-67
2022/09/19 11:11:53;;;;;;;0.80;0.80;;;13.40;99.90;;;;;;6107389;29;20219;-67
2022/09/19 11:15:09;;;;;;;1.15;1.10;;;13.50;99.90;;;;;;6117291;29;20356;-66
2022/09/19 11:18:22;;;;;;;1.00;1.00;;;13.60;99.90;;;;;;6117348;29;20251;-66
2022/09/19 11:21:48;;;;;;;0.70;0.70;;;13.50;99.90;;;;;;6117255;29;20539;-67
2022/09/19 11:25:03;;;;;;;1.45;0.70;;;13.50;99.90;;;;;;6116780;29;20437;-68
2022/09/19 11:28:24;;;;;;;0.80;0.80;;;13.50;99.90;;;;;;6117064;29;20240;-67
2022/09/19 11:31:43;;;;;;;0.80;0.80;;;13.60;99.90;;;;;;6133351;29;20283;-67
2022/09/19 11:35:25;;;;;;;3.30;0.70;;;13.60;99.90;;;;;;6159528;29;20291;-67
2022/09/19 11:38:41;;;;;;;1.20;1.10;;;13.50;99.90;;;;;;6158012;28;20254;-67
2022/09/19 11:42:24;;;;;;;1.05;0.70;;;13.30;99.90;;;;;;6140589;29;20267;-67
2022/09/19 11:45:35;;;;;;;0.73;0.73;;;13.30;99.90;;;;;;6162000;29;20230;-67
2022/09/19 11:49:19;;;;;;;2.70;0.82;;;13.30;99.90;;;;;;6156283;28;20459;-67
2022/09/19 11:52:35;;;;;;;0.85;0.85;;;13.50;99.90;;;;;;6113794;29;20205;-67
2022/09/19 11:55:44;;;;;;;1.33;0.80;;;13.60;99.90;;;;;;6139922;29;20232;-67
2022/09/19 11:58:58;;;;;;;0.73;0.73;;;13.60;99.90;;;;;;6139882;29;20299;-68
2022/09/19 12:02:25;;;;;;;1.95;1.20;;;13.70;99.90;;;;;;6140628;29;20268;-68
2022/09/19 12:05:40;;;;;;;0.80;0.80;;;13.60;99.90;;;;;;6161443;29;20436;-68
2022/09/19 12:09:02;;;;;;;1.20;0.80;;;13.50;99.90;;;;;;6155159;28;20433;-68
2022/09/19 12:12:12;;;;;;;1.30;0.77;;;13.50;99.90;;;;;;6117282;29;20253;-68
2022/09/19 12:15:47;;;;;;;0.85;0.85;;;13.60;99.90;;;;;;6115990;29;20280;-68
2022/09/19 12:18:55;;;;;;;0.65;0.65;;;13.70;99.90;;;;;;6117043;29;20243;-67
2022/09/19 12:22:10;;;;;;;1.52;0.90;;;13.70;99.90;;;;;;6131963;29;20223;-67
2022/09/19 12:25:18;;;;;;;0.80;0.80;;;13.70;99.90;;;;;;6115827;29;20236;-67
2022/09/19 12:28:24;;;;;;;1.15;0.70;;;13.60;99.90;;;;;;6131608;29;20229;-68
2022/09/19 12:31:36;;;;;;;2.45;0.80;;;13.60;99.90;;;;;;6115674;29;20240;-67
2022/09/19 12:34:47;;;;;;;1.55;0.80;;;13.60;99.90;;;;;;6100344;29;20400;-67
2022/09/19 12:38:03;;;;;;;0.80;0.80;;;13.60;99.90;;;;;;6092181;29;20246;-67
2022/09/19 12:41:17;;;;;;;0.75;0.75;;;13.60;99.90;;;;;;6092149;29;20393;-67
2022/09/19 12:44:35;;;;;;;2.80;2.70;;;13.50;99.90;;;;;;6092049;29;20233;-66
2022/09/19 12:47:55;;;;;;;2.10;1.85;;;13.60;99.90;;;;;;6092468;29;20298;-67
2022/09/19 12:51:12;;;;;;;4.30;2.88;;;13.60;99.90;;;;;;6091475;29;20235;-66
2022/09/19 12:54:19;;;;;;;1.85;1.85;;;13.70;99.90;;;;;;6092955;29;20233;-67
2022/09/19 12:57:36;;;;;;;1.80;1.70;;;13.80;99.90;;;;;;6093011;29;20257;-67
2022/09/19 13:00:42;;;;;;;0.98;0.98;;;13.90;99.90;;;;;;6092642;29;20244;-67
2022/09/19 13:03:54;;;;;;;1.10;1.00;;;13.90;99.90;;;;;;6092696;29;20528;-67
2022/09/19 13:07:04;;;;;;;0.70;0.70;;;13.80;99.90;;;;;;6092775;29;20472;-67
2022/09/19 13:10:19;;;;;;;0.65;0.65;;;13.70;99.90;;;;;;6092751;29;20276;-67
2022/09/19 13:13:29;;;;;;;0.80;0.80;;;13.60;99.90;;;;;;6092724;29;20229;-68
2022/09/19 13:23:29;;;;;;;0.93;0.80;;;13.50;99.90;;;;;;6092136;29;20232;-67
2022/09/19 13:23:31;;;;;;;1.77;0.70;;;13.60;99.90;;;;;;6120368;29;20539;-68
2022/09/19 13:26:37;;;;;;;1.38;0.73;;;13.50;99.90;;;;;;6121193;29;20221;-68
2022/09/19 13:29:48;;;;;;;0.60;0.60;;;13.50;99.90;;;;;;6120010;29;20258;-68
2022/09/19 13:32:57;;;;;;;0.70;0.70;;;13.60;99.90;;;;;;6120740;29;20189;-67
2022/09/19 13:36:11;;;;;;;0.73;0.73;;;13.60;99.90;;;;;;6120920;29;20286;-68
2022/09/19 13:39:47;;;;;;;1.33;0.80;;;13.60;99.90;;;;;;6120404;29;20583;-68
2022/09/19 13:42:54;;;;;;;1.17;0.60;;;13.60;99.90;;;;;;6119049;29;20260;-66
2022/09/19 13:46:06;;;;;;;1.05;0.93;;;13.50;99.90;;;;;;6121000;29;20196;-66
2022/09/19 13:49:31;;;;;;;0.70;0.70;;;13.40;99.90;;;;;;6120189;29;20232;-66
2022/09/19 13:52:42;;;;;;;0.77;0.73;;;13.20;99.90;;;;;;6120826;29;20190;-66
2022/09/19 13:55:59;;;;;;;0.80;0.80;;;13.10;99.90;;;;;;6119990;29;20496;-67
2022/09/19 13:59:21;;;;;;;0.80;0.80;;;13.00;99.90;;;;;;6120119;29;20280;-68
2022/09/19 14:02:28;;;;;;;0.63;0.63;;;13.00;99.90;;;;;;6119991;29;20221;-68
2022/09/19 14:05:39;;;;;;;0.80;0.80;;;13.00;99.90;;;;;;6120084;29;20299;-68
2022/09/19 14:08:45;;;;;;;1.27;0.73;;;13.00;99.90;;;;;;6118814;29;20243;-68
2022/09/19 14:12:57;;;;;;;0.68;0.68;;;13.00;99.90;;;;;;6150778;29;20203;-68
2022/09/19 14:16:30;;;;;;;3.33;3.13;;;12.90;99.90;;;;;;6143521;29;20219;-68
2022/09/19 14:19:45;;;;;;;1.77;1.23;;;13.00;99.90;;;;;;6142987;29;20294;-68
2022/09/19 14:22:49;;;;;;;1.00;1.00;;;13.10;99.90;;;;;;6143111;29;20188;-68
2022/09/19 14:26:00;;;;;;;0.93;0.80;;;13.00;99.90;;;;;;6143109;29;20474;-67
2022/09/19 14:29:17;;;;;;;2.28;0.90;;;12.80;99.90;;;;;;6142784;29;20461;-68
2022/09/19 14:32:31;;;;;;;1.00;1.00;;;12.90;99.90;;;;;;6143407;29;20262;-67
2022/09/19 14:35:45;;;;;;;1.02;1.00;;;12.90;99.90;;;;;;6141811;29;20491;-67
2022/09/19 14:39:25;;;;;;;1.08;1.08;;;13.00;99.90;;;;;;6143191;29;20275;-67
2022/09/19 14:42:54;;;;;;;3.10;1.00;;;13.00;99.90;;;;;;6138152;29;20557;-66
2022/09/19 14:46:24;;;;;;;0.70;0.70;;;13.00;99.90;;;;;;6165673;29;20208;-65
2022/09/19 14:49:38;;;;;;;2.28;1.10;;;12.90;99.90;;;;;;6164422;28;20563;-65
2022/09/19 14:52:43;;;;;;;0.82;0.82;;;12.90;99.90;;;;;;6166501;28;20503;-66
2022/09/19 14:55:50;;;;;;;3.25;1.00;;;13.00;99.90;;;;;;6166583;28;20275;-66
2022/09/19 14:58:56;;;;;;;0.93;0.93;;;13.10;99.90;;;;;;6166540;28;20247;-67
2022/09/19 15:02:16;;;;;;;1.20;1.20;;;13.10;99.90;;;;;;6166586;29;20274;-68
2022/09/19 15:05:24;;;;;;;0.98;0.80;;;13.00;99.90;;;;;;6165067;29;20236;-68
2022/09/19 15:08:31;;;;;;;1.50;0.80;;;12.90;99.90;;;;;;6166252;28;20234;-67
2022/09/19 15:11:36;;;;;;;0.95;0.93;;;12.80;99.90;;;;;;6155598;29;20196;-67
2022/09/19 15:14:47;;;;;;;1.35;0.85;;;12.80;99.90;;;;;;6142065;29;20302;-67
2022/09/19 15:17:56;;;;;;;1.00;0.82;;;12.90;99.90;;;;;;6141604;29;20247;-68
2022/09/19 15:21:03;;;;;;;0.80;0.80;;;12.90;99.90;;;;;;6141801;29;20263;-67
2022/09/19 15:24:12;;;;;;;0.93;0.93;;;12.80;99.90;;;;;;6141458;29;20546;-68
2022/09/19 15:27:18;;;;;;;1.00;1.00;;;12.90;99.90;;;;;;6142304;29;20234;-68
2022/09/19 15:30:27;;;;;;;4.22;0.90;;;12.90;99.90;;;;;;6141435;29;20424;-68
2022/09/19 15:33:32;;;;;;;0.70;0.70;;;12.90;99.90;;;;;;6141864;29;20291;-67
2022/09/19 15:36:38;;;;;;;2.00;0.82;;;12.90;99.90;;;;;;6141098;29;20195;-66
2022/09/19 15:39:42;;;;;;;1.35;0.90;;;12.90;99.90;;;;;;6141605;29;20232;-66
2022/09/19 15:42:46;;;;;;;2.80;1.30;;;12.90;99.90;;;;;;6141232;29;20288;-67
2022/09/19 15:45:54;;;;;;;0.90;0.90;;;13.00;99.90;;;;;;6141713;29;20208;-67
2022/09/19 15:49:00;;;;;;;1.08;1.08;;;12.90;99.90;;;;;;6139990;29;20299;-67
2022/09/19 15:52:09;;;;;;;1.00;1.00;;;12.90;99.90;;;;;;6141291;29;20196;-68
2022/09/19 15:55:29;;;;;;;1.10;1.10;;;12.90;99.90;;;;;;6141096;29;20295;-67
2022/09/19 15:58:41;;;;;;;2.95;1.10;;;12.90;99.90;;;;;;6140737;29;20421;-66
2022/09/19 16:01:50;;;;;;;1.00;1.00;;;13.00;99.90;;;;;;6141438;29;20216;-67
2022/09/19 16:05:06;;;;;;;1.02;0.90;;;12.90;99.90;;;;;;6140807;29;20263;-67
2022/09/19 16:11:47;;;;;;;0.88;0.88;;;12.80;99.90;;;;;;6149815;28;20203;-67
2022/09/19 16:14:57;;;;;;;0.88;0.88;;;12.80;99.90;;;;;;6164645;28;20274;-68
2022/09/19 16:18:17;;;;;;;0.80;0.80;;;12.80;99.90;;;;;;6164648;28;20188;-66
2022/09/19 16:21:23;;;;;;;0.80;0.80;;;12.80;99.90;;;;;;6164815;29;20215;-67
2022/09/19 16:24:29;;;;;;;1.20;1.20;;;12.80;99.90;;;;;;6164658;28;20303;-67
2022/09/19 16:27:34;;;;;;;1.13;1.13;;;12.80;99.90;;;;;;6164885;29;20187;-66
2022/09/19 16:30:52;;;;;;;1.00;1.00;;;12.70;99.90;;;;;;6163950;28;20254;-67
2022/09/19 16:34:01;;;;;;;1.40;1.00;;;12.80;99.90;;;;;;6164353;28;20251;-66
2022/09/19 16:37:25;;;;;;;0.90;0.90;;;12.80;99.90;;;;;;6164662;29;20188;-67
2022/09/19 16:40:29;;;;;;;1.67;0.68;;;12.70;99.90;;;;;;6164362;28;20234;-67
2022/09/19 16:43:39;;;;;;;0.80;0.80;;;12.60;99.90;;;;;;6163779;28;20235;-67
2022/09/19 16:46:44;;;;;;;0.88;0.88;;;12.70;99.90;;;;;;6164591;28;20215;-68
2022/09/19 16:49:53;;;;;;;0.90;0.90;;;12.60;99.90;;;;;;6163998;28;20472;-67
2022/09/19 16:52:57;;;;;;;0.90;0.90;;;12.50;99.90;;;;;;6163572;28;20355;-67
2022/09/19 16:56:01;;;;;;;0.77;0.77;;;12.60;99.90;;;;;;6164592;29;20188;-67
2022/09/19 16:59:09;;;;;;;0.88;0.88;;;12.40;99.90;;;;;;6163722;28;20231;-67
2022/09/19 17:02:19;;;;;;;0.90;0.90;;;12.50;99.90;;;;;;6164258;29;20266;-68
2022/09/19 17:05:28;;;;;;;0.85;0.85;;;12.40;99.90;;;;;;6164015;28;20250;-67
2022/09/19 17:08:33;;;;;;;0.98;0.98;;;12.30;99.90;;;;;;6163587;28;20235;-67